Orbital elements of SL-14 R/B
| Launched | 5 February 1985 |
| Flight ended | – |
| Launch site | Plesetsk Missile and Space Complex, Russia |
| Owner | Commonwealth of Independent States (former USSR) |
| NORAD ID | 15517 |
| Date fetched |
Epoch osculation |
Inc. [°] |
Ecc. | RA asc node [hr] |
Arg Peri. [°] |
Mean anom [°] |
Mean motion [rev/day] |
Abs. mag |
| Date fetched |
Epoch osculation |
Inc. [°] |
Ecc. | RA asc node [hr] |
Arg Peri. [°] |
Mean anom [°] |
Mean motion [rev/day] |
Abs. mag |
| 2026 May 07 17:58 | 2026 May 05 08:45:07 | 82.5390 | 0.00161 | 1.1820 | 80.1320 | 280.1655 | 13.85002 | 5.243 |
| 2026 May 06 17:57 | 2026 May 05 08:45:07 | 82.5390 | 0.00161 | 1.1820 | 80.1320 | 280.1655 | 13.85002 | 5.243 |
| 2026 May 05 17:57 | 2026 May 05 08:45:07 | 82.5390 | 0.00161 | 1.1820 | 80.1320 | 280.1655 | 13.85002 | 5.243 |
| 2026 May 04 17:57 | 2026 Apr 30 10:51:06 | 82.5396 | 0.00161 | 1.4428 | 92.8085 | 280.1655 | 13.85002 | 5.243 |
| 2026 May 03 17:57 | 2026 Apr 30 10:51:06 | 82.5396 | 0.00161 | 1.4428 | 92.8085 | 280.1655 | 13.85002 | 5.243 |
| 2026 May 02 17:57 | 2026 Apr 30 10:51:06 | 82.5396 | 0.00161 | 1.4428 | 92.8085 | 280.1655 | 13.85002 | 5.243 |
| 2026 May 01 17:56 | 2026 Apr 30 10:51:06 | 82.5396 | 0.00161 | 1.4428 | 92.8085 | 280.1655 | 13.85002 | 5.243 |
| 2026 Apr 30 17:56 | 2026 Apr 30 10:51:06 | 82.5396 | 0.00161 | 1.4428 | 92.8085 | 280.1655 | 13.85002 | 5.243 |
| 2026 Apr 29 17:57 | 2026 Apr 24 05:44:33 | 82.5394 | 0.00160 | 1.7726 | 108.8250 | 280.1655 | 13.85002 | 5.243 |
| 2026 Apr 28 17:56 | 2026 Apr 24 05:44:33 | 82.5394 | 0.00160 | 1.7726 | 108.8250 | 280.1655 | 13.85002 | 5.243 |
| 2026 Apr 27 17:58 | 2026 Apr 24 05:44:33 | 82.5394 | 0.00160 | 1.7726 | 108.8250 | 280.1655 | 13.85002 | 5.243 |
| 2026 Apr 26 17:58 | 2026 Apr 24 05:44:33 | 82.5394 | 0.00160 | 1.7726 | 108.8250 | 280.1655 | 13.85002 | 5.243 |
| 2026 Apr 25 17:58 | 2026 Apr 24 05:44:33 | 82.5394 | 0.00160 | 1.7726 | 108.8250 | 280.1655 | 13.85002 | 5.243 |
| 2026 Apr 24 17:59 | 2026 Apr 24 05:44:33 | 82.5394 | 0.00160 | 1.7726 | 108.8250 | 280.1655 | 13.85002 | 5.243 |
| 2026 Apr 23 17:57 | 2026 Apr 19 11:18:35 | 82.5392 | 0.00159 | 2.0257 | 121.1826 | 280.1655 | 13.85002 | 5.243 |
| 2026 Apr 22 17:57 | 2026 Apr 19 11:18:35 | 82.5392 | 0.00159 | 2.0257 | 121.1826 | 280.1655 | 13.85002 | 5.243 |
| 2026 Apr 21 17:57 | 2026 Apr 19 11:18:35 | 82.5392 | 0.00159 | 2.0257 | 121.1826 | 280.1655 | 13.85002 | 5.243 |
| 2026 Apr 20 17:57 | 2026 Apr 19 11:18:35 | 82.5392 | 0.00159 | 2.0257 | 121.1826 | 280.1655 | 13.85002 | 5.243 |
| 2026 Apr 19 17:58 | 2026 Apr 19 11:18:35 | 82.5392 | 0.00159 | 2.0257 | 121.1826 | 280.1655 | 13.85002 | 5.243 |
| 2026 Apr 18 17:56 | 2026 Apr 13 06:12:02 | 82.5388 | 0.00156 | 2.3556 | 137.5279 | 280.1655 | 13.85002 | 5.243 |
| 2026 Apr 16 17:57 | 2026 Apr 13 06:12:02 | 82.5388 | 0.00156 | 2.3556 | 137.5279 | 280.1655 | 13.85002 | 5.243 |
| 2026 Apr 14 17:57 | 2026 Apr 13 06:12:02 | 82.5388 | 0.00156 | 2.3556 | 137.5279 | 280.1655 | 13.85002 | 5.243 |
| 2026 Apr 13 17:57 | 2026 Apr 13 06:12:02 | 82.5388 | 0.00156 | 2.3556 | 137.5279 | 280.1655 | 13.85002 | 5.243 |
| 2026 Apr 12 17:57 | 2026 Apr 08 06:33:58 | 82.5380 | 0.00153 | 2.6202 | 150.9411 | 280.1655 | 13.85002 | 5.243 |
| 2026 Apr 11 17:57 | 2026 Apr 08 06:33:58 | 82.5380 | 0.00153 | 2.6202 | 150.9411 | 280.1655 | 13.85002 | 5.243 |
| 2026 Apr 10 17:58 | 2026 Apr 08 06:33:58 | 82.5380 | 0.00153 | 2.6202 | 150.9411 | 280.1655 | 13.85002 | 5.243 |